Time;durP1;ratioP1;P1;durP2;ratioP2;P2;SDS_P1;SDS_P2;PMS_P1;PMS_P2;Temp;Humidity;BMP_temperature;BMP_pressure;BME280_temperature;BME280_humidity;BME280_pressure;Samples;Min_cycle;Max_cycle;Signal;HPM_P1;HPM_P2
2023/06/21 00:01:31;;;;;;;15.37;12.40;;;20.60;99.90;;;;;;5034108;28;20477;-79
2023/06/21 00:04:00;;;;;;;13.23;11.93;;;20.60;99.90;;;;;;5033182;28;20049;-78
2023/06/21 00:06:28;;;;;;;14.07;12.33;;;20.50;99.90;;;;;;5016494;28;20057;-78
2023/06/21 00:08:55;;;;;;;16.17;12.80;;;20.50;99.90;;;;;;5034284;28;20057;-78
2023/06/21 00:11:21;;;;;;;14.83;12.53;;;20.50;99.90;;;;;;5033859;28;20041;-78
2023/06/21 00:13:47;;;;;;;14.83;13.33;;;20.50;99.90;;;;;;5034408;28;20179;-79
2023/06/21 00:16:14;;;;;;;14.23;12.70;;;20.40;99.90;;;;;;5032684;28;20125;-78
2023/06/21 00:18:40;;;;;;;14.23;12.73;;;20.40;99.90;;;;;;5032570;28;20049;-76
2023/06/21 00:21:06;;;;;;;16.47;13.90;;;20.40;99.90;;;;;;5033884;28;20089;-76
2023/06/21 00:23:32;;;;;;;14.17;12.73;;;20.40;99.90;;;;;;5032663;28;20049;-76
2023/06/21 00:25:58;;;;;;;16.50;14.80;;;20.40;99.90;;;;;;5032554;28;20045;-76
2023/06/21 00:28:23;;;;;;;15.13;13.70;;;20.30;99.90;;;;;;5033820;28;20128;-75
2023/06/21 00:30:49;;;;;;;15.73;14.17;;;20.30;99.90;;;;;;5033906;28;20091;-75
2023/06/21 00:33:16;;;;;;;15.93;14.37;;;20.30;99.90;;;;;;5016225;28;20053;-75
2023/06/21 00:35:42;;;;;;;15.70;14.00;;;20.30;99.90;;;;;;5033877;28;20068;-75
2023/06/21 00:38:07;;;;;;;16.60;14.97;;;20.30;99.90;;;;;;5033821;28;20046;-76
2023/06/21 00:40:33;;;;;;;16.67;14.93;;;20.30;99.90;;;;;;5015722;28;20523;-79
2023/06/21 00:42:59;;;;;;;16.90;14.97;;;20.30;99.90;;;;;;5033710;28;20045;-79
2023/06/21 00:45:25;;;;;;;18.07;16.13;;;20.30;99.90;;;;;;5015782;28;20223;-76
2023/06/21 00:47:51;;;;;;;17.17;15.47;;;20.30;99.90;;;;;;5016253;28;20049;-76
2023/06/21 00:50:17;;;;;;;20.00;15.27;;;20.20;99.90;;;;;;5033111;28;20049;-76
2023/06/21 00:52:43;;;;;;;15.30;13.80;;;20.20;99.90;;;;;;5032118;28;20191;-76
2023/06/21 00:55:12;;;;;;;17.73;15.13;;;20.20;99.90;;;;;;5033191;28;20132;-76
2023/06/21 00:57:38;;;;;;;18.03;16.20;;;20.20;99.90;;;;;;5033323;28;20481;-76
2023/06/21 01:00:05;;;;;;;18.47;16.57;;;20.20;99.90;;;;;;5033371;28;20099;-77
2023/06/21 01:02:32;;;;;;;18.93;17.07;;;20.20;99.90;;;;;;5032906;28;20072;-80
2023/06/21 01:04:59;;;;;;;19.73;17.73;;;20.20;99.90;;;;;;5033342;28;20053;-79
2023/06/21 01:07:51;;;;;;;20.37;18.27;;;20.20;99.90;;;;;;5031697;28;20050;-79
2023/06/21 01:10:58;;;;;;;22.07;19.73;;;20.20;99.90;;;;;;5030557;28;20060;-78
2023/06/21 01:13:50;;;;;;;21.47;19.30;;;20.20;99.90;;;;;;5032824;28;20049;-78
2023/06/21 01:16:18;;;;;;;21.67;19.43;;;20.20;99.90;;;;;;5032681;28;20081;-78
2023/06/21 01:18:45;;;;;;;24.97;20.97;;;20.20;99.90;;;;;;5033109;28;20053;-78
2023/06/21 01:21:18;;;;;;;25.53;22.83;;;20.20;99.90;;;;;;5032777;28;20049;-78
2023/06/21 01:24:09;;;;;;;27.37;23.63;;;20.20;99.90;;;;;;5031912;28;20041;-78
2023/06/21 01:26:55;;;;;;;25.73;23.03;;;20.20;99.90;;;;;;5031440;28;20386;-78
2023/06/21 01:29:24;;;;;;;26.50;23.67;;;20.20;99.90;;;;;;5032491;28;20081;-78
2023/06/21 01:31:52;;;;;;;26.10;23.40;;;20.20;99.90;;;;;;5032425;28;20041;-78
2023/06/21 01:34:18;;;;;;;26.47;23.73;;;20.20;99.90;;;;;;5032147;28;20539;-78
2023/06/21 01:36:45;;;;;;;29.17;25.13;;;20.20;99.90;;;;;;5032596;28;20041;-79
2023/06/21 01:39:10;;;;;;;28.87;23.87;;;20.20;99.90;;;;;;5032493;28;20054;-79
2023/06/21 01:41:37;;;;;;;29.47;24.30;;;20.10;99.90;;;;;;5031202;28;20083;-79
2023/06/21 01:44:04;;;;;;;26.93;24.10;;;20.10;99.90;;;;;;5032511;28;20382;-79
2023/06/21 01:46:29;;;;;;;26.33;23.53;;;20.10;99.90;;;;;;5031446;28;20057;-79
2023/06/21 01:48:59;;;;;;;28.10;25.13;;;20.10;99.90;;;;;;5032427;28;20057;-79
2023/06/21 01:51:26;;;;;;;28.90;25.83;;;20.10;99.90;;;;;;5031013;28;20564;-78
2023/06/21 01:53:53;;;;;;;29.00;25.83;;;20.00;99.90;;;;;;5031797;28;20088;-78
2023/06/21 01:56:19;;;;;;;30.60;27.50;;;20.00;99.90;;;;;;5031317;28;20041;-78
2023/06/21 01:58:49;;;;;;;32.80;29.43;;;20.00;99.90;;;;;;5031256;28;20057;-78
2023/06/21 02:01:18;;;;;;;33.67;30.03;;;20.00;99.90;;;;;;5032363;28;20125;-79
2023/06/21 02:03:52;;;;;;;35.07;31.50;;;19.90;99.90;;;;;;5031968;28;20057;-78
2023/06/21 02:06:26;;;;;;;34.60;31.00;;;19.90;99.90;;;;;;5032342;28;20507;-78
2023/06/21 02:08:53;;;;;;;36.03;32.23;;;19.80;99.90;;;;;;5032699;28;20049;-78
2023/06/21 02:11:19;;;;;;;33.27;29.93;;;19.80;99.90;;;;;;5032480;28;20046;-78
2023/06/21 02:13:48;;;;;;;34.67;31.27;;;19.70;99.90;;;;;;5030900;28;20444;-78
2023/06/21 02:16:17;;;;;;;33.47;30.13;;;19.70;99.90;;;;;;5032086;28;20041;-79
2023/06/21 02:18:44;;;;;;;35.27;31.57;;;19.60;99.90;;;;;;5030837;28;20416;-78
2023/06/21 02:21:11;;;;;;;36.23;32.70;;;19.50;99.90;;;;;;5032381;28;20064;-78
2023/06/21 02:23:37;;;;;;;35.67;32.07;;;19.50;99.90;;;;;;5032028;28;20053;-77
2023/06/21 02:26:03;;;;;;;36.90;33.00;;;19.50;99.90;;;;;;5032190;28;20159;-78
2023/06/21 02:28:29;;;;;;;35.93;32.30;;;19.50;99.90;;;;;;5031827;28;20049;-78
2023/06/21 02:30:54;;;;;;;34.83;30.73;;;19.40;99.90;;;;;;5032094;28;20052;-78
2023/06/21 02:33:20;;;;;;;35.37;31.53;;;19.40;99.90;;;;;;5030949;28;20052;-78
2023/06/21 02:35:46;;;;;;;34.57;30.83;;;19.40;99.90;;;;;;5031878;28;20556;-78
2023/06/21 02:38:12;;;;;;;34.40;30.67;;;19.30;99.90;;;;;;5030843;28;20046;-79
2023/06/21 02:40:37;;;;;;;35.63;32.13;;;19.30;99.90;;;;;;5031772;28;20042;-79
2023/06/21 02:43:04;;;;;;;35.57;31.93;;;19.30;99.90;;;;;;5035429;28;20053;-79
2023/06/21 02:45:29;;;;;;;33.33;30.03;;;19.30;99.90;;;;;;5017962;28;20053;-78
2023/06/21 02:47:55;;;;;;;34.90;30.67;;;19.30;99.90;;;;;;5035150;28;20076;-79
2023/06/21 02:50:21;;;;;;;34.27;30.80;;;19.20;99.90;;;;;;5034537;28;20052;-79
2023/06/21 02:52:47;;;;;;;34.27;30.63;;;19.20;99.90;;;;;;5035398;28;20872;-79
2023/06/21 02:55:12;;;;;;;36.90;32.33;;;19.20;99.90;;;;;;5035525;28;20038;-79
2023/06/21 02:57:38;;;;;;;35.17;31.47;;;19.20;99.90;;;;;;5035171;28;20053;-79
2023/06/21 03:00:27;;;;;;;36.60;32.90;;;19.20;99.90;;;;;;5034302;28;20433;-79
2023/06/21 03:02:59;;;;;;;35.70;32.07;;;19.20;99.90;;;;;;5034416;28;20128;-80
2023/06/21 03:05:26;;;;;;;36.73;32.83;;;19.20;99.90;;;;;;5035675;28;20444;-79
2023/06/21 03:07:52;;;;;;;36.47;31.67;;;19.20;99.90;;;;;;5034027;28;20045;-79
2023/06/21 03:10:19;;;;;;;33.57;29.97;;;19.20;99.90;;;;;;5017677;28;20049;-79
2023/06/21 03:12:46;;;;;;;33.40;29.53;;;19.20;99.90;;;;;;5034967;28;20053;-79
2023/06/21 03:15:12;;;;;;;32.57;28.63;;;19.20;99.90;;;;;;5034322;28;20096;-80
2023/06/21 03:17:39;;;;;;;37.37;28.87;;;19.10;99.90;;;;;;5033774;28;20049;-79
2023/06/21 03:20:12;;;;;;;31.20;26.70;;;19.10;99.90;;;;;;5034265;28;20053;-79
2023/06/21 03:22:40;;;;;;;33.63;28.20;;;19.10;99.90;;;;;;5034820;28;20119;-79
2023/06/21 03:25:06;;;;;;;28.13;24.30;;;19.10;99.90;;;;;;5035029;28;20053;-79
2023/06/21 03:27:32;;;;;;;31.60;25.33;;;19.10;99.90;;;;;;5034610;28;20053;-78
2023/06/21 03:29:59;;;;;;;31.27;25.17;;;19.10;99.90;;;;;;5034241;28;20045;-79
2023/06/21 03:32:25;;;;;;;28.67;24.47;;;19.10;99.90;;;;;;5035021;28;20076;-79
2023/06/21 03:34:51;;;;;;;27.13;23.33;;;19.00;99.90;;;;;;5033305;28;20045;-79
2023/06/21 03:37:16;;;;;;;26.30;23.23;;;19.00;99.90;;;;;;5033580;28;20485;-79
2023/06/21 03:39:42;;;;;;;26.00;23.17;;;19.00;99.90;;;;;;5034548;28;20052;-78
2023/06/21 03:42:08;;;;;;;28.50;23.50;;;19.00;99.90;;;;;;5034649;28;20555;-79
2023/06/21 03:44:33;;;;;;;25.77;21.33;;;19.00;99.90;;;;;;5034675;28;20140;-78
2023/06/21 03:46:59;;;;;;;28.80;22.63;;;19.00;99.90;;;;;;5034724;28;20049;-79
2023/06/21 03:49:25;;;;;;;25.50;21.70;;;19.00;99.90;;;;;;5033584;28;20057;-79
2023/06/21 03:51:50;;;;;;;26.70;21.43;;;19.00;99.90;;;;;;5034418;28;20045;-79
2023/06/21 03:54:17;;;;;;;23.17;20.37;;;19.00;99.90;;;;;;5032515;28;20107;-79
2023/06/21 03:56:42;;;;;;;27.83;21.27;;;18.90;99.90;;;;;;5033974;28;20042;-79
2023/06/21 03:59:08;;;;;;;25.03;19.97;;;18.90;99.90;;;;;;5033624;28;20068;-79
2023/06/21 04:01:34;;;;;;;27.00;22.07;;;18.90;99.90;;;;;;5034117;28;20057;-79
2023/06/21 04:03:59;;;;;;;24.57;20.87;;;18.90;99.90;;;;;;5032902;28;20548;-79
2023/06/21 04:06:25;;;;;;;26.43;20.10;;;19.00;99.90;;;;;;5032971;28;20508;-80
2023/06/21 04:08:52;;;;;;;25.47;21.17;;;19.00;99.90;;;;;;5034021;28;20125;-79
2023/06/21 04:11:17;;;;;;;28.90;20.83;;;19.00;99.90;;;;;;5034121;28;20053;-80
2023/06/21 04:13:43;;;;;;;25.30;20.03;;;19.10;99.90;;;;;;5034155;28;20041;-79
2023/06/21 04:16:09;;;;;;;26.03;20.47;;;19.10;99.90;;;;;;5033056;28;20049;-79
2023/06/21 04:18:35;;;;;;;23.80;19.77;;;19.10;99.90;;;;;;5034067;28;20045;-79
2023/06/21 04:21:01;;;;;;;27.33;20.63;;;19.10;99.90;;;;;;5032419;28;20546;-79
2023/06/21 04:23:26;;;;;;;24.90;20.60;;;19.10;99.90;;;;;;5033732;28;20052;-79
2023/06/21 04:25:53;;;;;;;25.17;20.23;;;19.10;99.90;;;;;;5033588;28;20041;-79
2023/06/21 04:28:25;;;;;;;24.13;20.07;;;19.10;99.90;;;;;;5034018;28;20498;-80
2023/06/21 04:30:55;;;;;;;27.17;20.17;;;19.10;99.90;;;;;;5033715;28;20115;-79
2023/06/21 04:33:21;;;;;;;24.37;20.53;;;19.10;99.90;;;;;;5032471;28;20375;-79
2023/06/21 04:35:47;;;;;;;24.13;19.00;;;19.10;99.90;;;;;;5033298;28;20382;-78
2023/06/21 04:38:13;;;;;;;26.07;19.50;;;19.20;99.90;;;;;;5032428;28;20075;-79
2023/06/21 04:40:38;;;;;;;22.50;18.23;;;19.20;99.90;;;;;;5015947;28;20049;-79
2023/06/21 04:43:06;;;;;;;22.53;18.30;;;19.30;99.90;;;;;;5015994;28;20168;-79
2023/06/21 04:45:32;;;;;;;21.70;17.70;;;19.40;99.90;;;;;;5032503;28;20520;-79
2023/06/21 04:47:57;;;;;;;25.70;18.20;;;19.40;99.90;;;;;;5033142;28;20124;-79
2023/06/21 04:50:24;;;;;;;21.13;16.87;;;19.60;99.90;;;;;;5032504;28;20478;-79
2023/06/21 04:52:51;;;;;;;22.37;17.30;;;19.60;99.90;;;;;;5032971;28;20049;-79
2023/06/21 04:55:18;;;;;;;21.73;16.67;;;19.70;99.90;;;;;;5033453;28;20488;-79
2023/06/21 04:57:45;;;;;;;20.27;16.10;;;19.80;99.90;;;;;;5033121;28;20052;-78
2023/06/21 05:00:11;;;;;;;18.93;15.17;;;19.80;99.90;;;;;;5032810;28;20084;-79
2023/06/21 05:02:38;;;;;;;18.63;14.70;;;19.90;99.90;;;;;;5033302;28;20137;-79
2023/06/21 05:05:04;;;;;;;20.50;14.57;;;20.00;99.90;;;;;;5032753;28;20059;-79
2023/06/21 05:07:30;;;;;;;18.20;13.10;;;20.10;99.90;;;;;;5033093;28;20128;-79
2023/06/21 05:09:56;;;;;;;17.67;13.20;;;20.30;99.90;;;;;;5032959;28;20053;-79
2023/06/21 05:12:21;;;;;;;20.43;14.27;;;20.30;99.90;;;;;;5033044;28;20128;-79
2023/06/21 05:14:47;;;;;;;15.80;12.37;;;20.30;99.90;;;;;;5032803;28;20096;-78
2023/06/21 05:17:15;;;;;;;18.50;13.53;;;20.40;99.90;;;;;;5033001;28;20139;-79
2023/06/21 05:19:45;;;;;;;16.03;11.60;;;20.50;99.90;;;;;;5033054;28;20083;-77
2023/06/21 05:22:10;;;;;;;19.53;12.30;;;20.50;99.90;;;;;;5032883;28;20382;-80
2023/06/21 05:24:37;;;;;;;20.10;12.43;;;20.60;99.90;;;;;;5032913;28;20045;-78
2023/06/21 05:27:04;;;;;;;16.97;11.87;;;20.70;99.90;;;;;;5032619;28;20045;-79
2023/06/21 05:29:29;;;;;;;17.70;11.40;;;20.80;99.90;;;;;;5032803;28;20095;-78
2023/06/21 05:31:55;;;;;;;21.47;12.90;;;20.80;99.90;;;;;;5032587;28;20053;-78
2023/06/21 05:34:21;;;;;;;18.27;12.07;;;20.90;99.90;;;;;;5032831;28;20422;-78
2023/06/21 05:36:46;;;;;;;19.13;12.03;;;21.00;99.90;;;;;;5014652;28;20540;-76
2023/06/21 05:39:13;;;;;;;15.20;11.37;;;21.00;99.90;;;;;;5031496;28;20048;-78
2023/06/21 05:41:39;;;;;;;13.93;10.87;;;21.10;99.90;;;;;;5031638;28;20046;-78
2023/06/21 05:44:04;;;;;;;18.37;12.03;;;21.20;99.90;;;;;;5032379;28;20057;-81
2023/06/21 05:46:30;;;;;;;15.80;11.13;;;21.40;99.90;;;;;;5031446;28;20037;-81
2023/06/21 05:48:56;;;;;;;17.90;11.53;;;21.50;99.90;;;;;;5032289;28;20148;-80
2023/06/21 05:51:22;;;;;;;14.27;10.70;;;21.70;99.90;;;;;;5032431;28;20119;-80
2023/06/21 05:53:48;;;;;;;17.90;11.07;;;22.50;99.90;;;;;;5032666;28;20085;-75
2023/06/21 05:56:13;;;;;;;15.60;10.40;;;23.60;99.90;;;;;;5031243;28;20474;-77
2023/06/21 05:58:39;;;;;;;14.47;10.57;;;24.50;99.90;;;;;;5031669;28;20057;-77
2023/06/21 06:01:05;;;;;;;13.07;9.57;;;25.40;99.90;;;;;;5032139;28;20551;-78
2023/06/21 06:03:30;;;;;;;14.63;9.83;;;26.00;99.90;;;;;;5031125;28;20045;-77
2023/06/21 06:05:56;;;;;;;12.43;9.13;;;26.70;99.90;;;;;;5031951;28;20056;-77
2023/06/21 06:08:22;;;;;;;13.17;8.80;;;27.10;99.90;;;;;;5032445;28;20052;-78
2023/06/21 06:10:48;;;;;;;15.80;10.00;;;27.50;99.90;;;;;;5031153;28;20560;-77
2023/06/21 06:13:14;;;;;;;14.07;9.00;;;27.90;99.90;;;;;;5031165;28;20132;-78
2023/06/21 06:15:40;;;;;;;13.17;8.67;;;28.20;99.90;;;;;;5031488;28;20091;-76
2023/06/21 06:18:06;;;;;;;12.90;8.77;;;28.40;99.90;;;;;;5035573;28;20378;-78
2023/06/21 06:20:31;;;;;;;12.83;9.37;;;28.90;99.90;;;;;;5036156;28;20056;-80
2023/06/21 06:22:57;;;;;;;15.80;7.70;;;29.50;99.90;;;;;;5036065;28;20069;-78
2023/06/21 06:25:23;;;;;;;11.57;8.68;;;29.60;99.90;;;;;;5035040;28;20120;-78
2023/06/21 06:27:48;;;;;;;11.82;8.25;;;29.60;99.80;;;;;;5036170;28;20124;-70
2023/06/21 06:30:14;;;;;;;16.08;9.60;;;29.10;99.20;;;;;;5035818;28;20050;-76
2023/06/21 06:32:40;;;;;;;13.45;7.65;;;28.60;99.80;;;;;;5018531;28;20045;-79
2023/06/21 06:35:06;;;;;;;13.15;8.30;;;28.70;99.90;;;;;;5035683;28;20137;-79
2023/06/21 06:37:32;;;;;;;12.02;8.07;;;28.80;99.90;;;;;;5036092;28;20080;-81
2023/06/21 06:39:58;;;;;;;10.13;7.70;;;28.70;98.40;;;;;;5035713;28;20080;-79
2023/06/21 06:42:24;;;;;;;10.10;7.22;;;28.70;98.70;;;;;;5035934;28;20049;-81
2023/06/21 06:44:50;;;;;;;12.15;8.02;;;28.40;99.00;;;;;;5035776;28;20098;-82
2023/06/21 06:47:16;;;;;;;12.13;8.18;;;28.80;99.10;;;;;;5034377;28;20049;-76
2023/06/21 06:49:42;;;;;;;11.18;8.00;;;28.90;97.50;;;;;;5034415;28;20056;-78
2023/06/21 06:52:09;;;;;;;11.45;8.23;;;28.60;97.80;;;;;;5035328;28;20046;-75
2023/06/21 06:54:35;;;;;;;10.73;8.10;;;28.40;97.60;;;;;;5034516;28;20069;-72
2023/06/21 06:57:01;;;;;;;9.50;7.28;;;28.60;97.50;;;;;;5035329;28;20042;-75
2023/06/21 06:59:26;;;;;;;11.40;7.95;;;28.70;97.70;;;;;;5018149;28;20461;-78
2023/06/21 07:01:52;;;;;;;12.32;8.23;;;28.70;96.90;;;;;;5034004;28;20057;-78
2023/06/21 07:04:18;;;;;;;10.18;8.15;;;28.30;96.10;;;;;;5035114;28;20049;-77
2023/06/21 07:06:44;;;;;;;10.55;8.30;;;27.80;98.00;;;;;;5018017;28;20049;-77
2023/06/21 07:09:09;;;;;;;10.05;7.28;;;28.30;99.20;;;;;;5033799;28;20045;-80
2023/06/21 07:11:36;;;;;;;10.75;7.53;;;29.20;97.40;;;;;;5035430;28;20138;-76
2023/06/21 07:14:01;;;;;;;11.43;8.07;;;29.70;93.90;;;;;;5035171;28;20053;-78
2023/06/21 07:16:34;;;;;;;10.82;6.53;;;30.10;91.30;;;;;;5035325;28;20037;-80
2023/06/21 07:19:00;;;;;;;9.52;6.28;;;30.20;81.80;;;;;;5033802;28;20154;-79
2023/06/21 07:21:27;;;;;;;10.80;7.05;;;30.10;87.00;;;;;;5034511;28;20049;-77
2023/06/21 07:23:53;;;;;;;10.20;6.72;;;29.80;87.90;;;;;;5034743;28;20041;-77
2023/06/21 07:26:19;;;;;;;12.13;6.82;;;29.90;86.70;;;;;;5033706;28;20881;-76
2023/06/21 07:28:45;;;;;;;9.82;6.72;;;30.00;83.70;;;;;;5030197;28;20102;-77
2023/06/21 07:31:10;;;;;;;8.88;6.43;;;30.20;84.40;;;;;;5032104;28;20055;-77
2023/06/21 07:33:37;;;;;;;8.10;6.63;;;30.50;83.60;;;;;;5034013;28;20045;-77
2023/06/21 07:36:03;;;;;;;8.63;5.97;;;31.20;79.00;;;;;;5017180;28;20429;-76
2023/06/21 07:38:29;;;;;;;8.50;6.00;;;31.90;75.90;;;;;;5034068;28;20057;-79
2023/06/21 07:40:55;;;;;;;11.43;6.43;;;32.60;68.40;;;;;;5035015;28;20051;-77
2023/06/21 07:43:20;;;;;;;9.23;6.35;;;33.30;63.20;;;;;;5050071;28;20613;-78
2023/06/21 07:45:47;;;;;;;8.48;6.47;;;33.90;59.80;;;;;;5034879;28;20045;-79
2023/06/21 07:48:12;;;;;;;8.57;5.95;;;34.20;56.30;;;;;;5033237;28;20069;-80
2023/06/21 07:50:39;;;;;;;9.18;6.03;;;34.30;54.80;;;;;;5017361;28;20060;-78
2023/06/21 07:53:06;;;;;;;7.85;5.18;;;34.60;53.70;;;;;;5034535;28;20053;-77
2023/06/21 07:55:31;;;;;;;8.63;6.05;;;34.90;52.10;;;;;;5050332;28;20058;-78
2023/06/21 07:57:57;;;;;;;9.07;5.80;;;35.00;50.90;;;;;;5034365;28;20048;-78
2023/06/21 08:00:23;;;;;;;8.68;6.00;;;35.10;50.80;;;;;;5049205;28;20060;-79
2023/06/21 08:02:51;;;;;;;8.55;5.00;;;35.40;49.70;;;;;;5049665;28;20049;-78
2023/06/21 08:05:17;;;;;;;8.60;5.50;;;35.50;48.70;;;;;;5034290;28;20056;-75
2023/06/21 08:07:43;;;;;;;7.82;5.25;;;35.60;47.80;;;;;;5034686;28;20057;-78
2023/06/21 08:10:09;;;;;;;8.35;5.80;;;35.60;47.60;;;;;;5034033;28;20416;-77
2023/06/21 08:12:35;;;;;;;8.68;4.80;;;35.60;46.80;;;;;;5034232;28;20055;-79
2023/06/21 08:15:01;;;;;;;8.30;4.60;;;35.80;46.60;;;;;;5033063;28;20133;-78
2023/06/21 08:17:27;;;;;;;7.15;5.38;;;35.70;45.80;;;;;;5049126;28;20132;-78
2023/06/21 08:19:52;;;;;;;9.00;5.78;;;35.90;45.80;;;;;;5034001;28;20128;-78
2023/06/21 08:22:18;;;;;;;7.40;5.35;;;35.80;45.60;;;;;;5033930;28;20056;-77
2023/06/21 08:24:44;;;;;;;8.65;5.85;;;35.90;45.20;;;;;;5034128;28;20580;-78
2023/06/21 08:27:10;;;;;;;7.57;5.05;;;35.80;45.20;;;;;;5032608;28;20089;-76
2023/06/21 08:29:36;;;;;;;8.00;5.43;;;35.80;45.00;;;;;;5033994;28;20084;-77
2023/06/21 08:32:03;;;;;;;10.13;5.75;;;35.70;45.10;;;;;;5033850;28;20485;-79
2023/06/21 08:34:29;;;;;;;7.55;6.03;;;36.00;44.80;;;;;;5048836;28;20054;-79
2023/06/21 08:36:54;;;;;;;8.68;5.80;;;35.90;44.50;;;;;;5049279;28;20049;-80
2023/06/21 08:39:20;;;;;;;7.32;5.35;;;36.00;44.50;;;;;;5032178;28;20128;-78
2023/06/21 08:41:46;;;;;;;7.68;5.38;;;35.80;44.20;;;;;;5033821;28;20538;-79
2023/06/21 08:44:12;;;;;;;7.50;5.82;;;35.60;45.00;;;;;;5049010;28;20053;-75
2023/06/21 08:46:39;;;;;;;8.13;6.20;;;35.60;45.30;;;;;;5048950;28;20033;-78
2023/06/21 08:49:05;;;;;;;6.93;6.03;;;35.60;44.90;;;;;;5032724;28;20096;-77
2023/06/21 08:51:39;;;;;;;9.02;6.57;;;35.40;44.60;;;;;;5033356;28;20076;-78
2023/06/21 08:54:09;;;;;;;7.60;5.88;;;35.00;44.60;;;;;;5048924;28;20492;-78
2023/06/21 08:56:55;;;;;;;9.23;5.20;;;34.50;45.90;;;;;;5048708;28;20042;-78
2023/06/21 08:59:55;;;;;;;7.82;5.88;;;34.10;46.70;;;;;;5032452;28;20049;-78
2023/06/21 09:02:33;;;;;;;8.43;6.05;;;33.50;46.80;;;;;;5048717;28;20049;-82
2023/06/21 09:05:05;;;;;;;6.00;4.65;;;32.90;47.20;;;;;;5049132;28;20057;-80
2023/06/21 09:07:33;;;;;;;7.72;4.63;;;32.40;48.20;;;;;;5015700;28;20107;-81
2023/06/21 09:10:00;;;;;;;7.55;5.22;;;31.90;49.00;;;;;;5048478;28;20049;-80
2023/06/21 09:12:27;;;;;;;7.35;4.72;;;31.70;49.10;;;;;;5030821;28;20053;-79
2023/06/21 09:14:54;;;;;;;6.43;4.90;;;31.30;49.80;;;;;;5033271;28;20124;-78
2023/06/21 09:17:22;;;;;;;7.47;4.82;;;31.00;50.50;;;;;;5032406;28;20107;-78
2023/06/21 09:19:47;;;;;;;7.35;5.00;;;30.80;50.50;;;;;;5033005;28;20096;-77
2023/06/21 09:22:14;;;;;;;7.00;5.28;;;30.60;50.90;;;;;;5031650;28;20426;-77
2023/06/21 09:24:40;;;;;;;6.63;4.90;;;30.30;51.90;;;;;;5032067;28;20041;-78
2023/06/21 09:27:05;;;;;;;7.43;5.20;;;30.20;52.60;;;;;;5033053;28;20065;-78
2023/06/21 09:29:32;;;;;;;9.25;6.68;;;30.10;53.60;;;;;;5032739;28;20107;-78
2023/06/21 09:31:58;;;;;;;8.02;6.05;;;29.90;55.40;;;;;;4999352;28;20057;-78
2023/06/21 09:34:23;;;;;;;7.50;6.03;;;29.90;56.20;;;;;;5032514;28;20037;-79
2023/06/21 09:36:49;;;;;;;7.82;6.38;;;29.70;57.30;;;;;;5031308;28;20248;-79
2023/06/21 09:39:15;;;;;;;7.93;5.65;;;29.50;57.60;;;;;;5031765;28;20045;-78
2023/06/21 09:41:41;;;;;;;8.07;5.80;;;29.40;59.60;;;;;;5032877;28;20064;-79
2023/06/21 09:44:07;;;;;;;7.63;5.00;;;29.30;61.30;;;;;;5032660;28;20124;-79
2023/06/21 09:46:33;;;;;;;7.38;5.13;;;29.30;61.10;;;;;;5032381;28;20121;-79
2023/06/21 09:49:09;;;;;;;7.72;5.72;;;29.30;63.50;;;;;;5031495;28;20057;-77
2023/06/21 09:51:47;;;;;;;6.85;5.10;;;29.20;64.40;;;;;;5031697;28;20053;-78
2023/06/21 09:54:13;;;;;;;7.68;5.95;;;29.10;64.10;;;;;;5032577;28;20091;-78
2023/06/21 09:56:39;;;;;;;7.13;5.10;;;29.00;64.10;;;;;;5032187;28;20073;-78
2023/06/21 09:59:22;;;;;;;7.30;4.15;;;28.90;65.90;;;;;;5031507;28;20060;-78
2023/06/21 10:01:49;;;;;;;5.72;4.18;;;28.90;69.50;;;;;;5031380;28;20057;-78
2023/06/21 10:04:16;;;;;;;5.97;3.97;;;28.90;68.70;;;;;;5015400;28;20085;-78
2023/06/21 10:06:50;;;;;;;7.35;4.45;;;29.00;66.50;;;;;;5031334;28;20099;-78
2023/06/21 10:09:17;;;;;;;7.15;3.75;;;28.80;66.70;;;;;;5032603;28;20049;-78
2023/06/21 10:11:48;;;;;;;7.68;4.47;;;28.80;67.70;;;;;;5032479;28;20128;-78
2023/06/21 10:14:21;;;;;;;6.72;4.47;;;28.80;66.80;;;;;;5032438;28;20045;-78
2023/06/21 10:16:52;;;;;;;7.72;4.28;;;28.80;67.00;;;;;;5031007;28;20041;-70
2023/06/21 10:19:26;;;;;;;6.55;4.75;;;28.70;67.90;;;;;;5031044;28;20061;-70
2023/06/21 10:22:01;;;;;;;5.28;3.90;;;28.70;67.40;;;;;;5032295;28;20164;-74
2023/06/21 10:24:48;;;;;;;7.65;5.60;;;28.50;67.30;;;;;;5030902;28;20493;-71
2023/06/21 10:27:19;;;;;;;6.68;5.30;;;28.40;67.80;;;;;;5032591;28;20045;-79
2023/06/21 10:29:51;;;;;;;8.75;5.00;;;28.20;70.90;;;;;;5031691;28;20102;-78
2023/06/21 10:32:17;;;;;;;6.32;4.45;;;28.30;74.10;;;;;;5031123;28;20050;-77
2023/06/21 10:35:04;;;;;;;6.00;4.10;;;28.30;72.40;;;;;;4998059;28;20114;-76
2023/06/21 10:38:03;;;;;;;7.47;5.63;;;28.40;75.50;;;;;;5031996;28;20068;-78
2023/06/21 10:40:30;;;;;;;7.00;5.75;;;28.50;75.60;;;;;;4993340;28;20111;-77
2023/06/21 10:42:58;;;;;;;8.52;6.50;;;28.50;78.30;;;;;;5031395;28;20452;-77
2023/06/21 10:45:24;;;;;;;8.27;5.88;;;28.40;76.90;;;;;;5031673;28;20049;-77
2023/06/21 10:47:53;;;;;;;10.48;6.95;;;28.30;78.40;;;;;;5032456;28;20129;-77
2023/06/21 10:50:20;;;;;;;8.07;6.47;;;28.30;80.20;;;;;;5031993;28;20208;-78
2023/06/21 10:52:47;;;;;;;8.30;6.85;;;28.40;79.90;;;;;;5031930;28;20075;-77
2023/06/21 10:55:14;;;;;;;9.52;6.53;;;28.40;80.80;;;;;;5030957;28;20061;-76
2023/06/21 10:57:40;;;;;;;8.00;6.20;;;28.40;82.30;;;;;;5031697;28;20083;-78
2023/06/21 11:00:08;;;;;;;9.20;6.90;;;28.50;80.70;;;;;;5031609;28;20049;-76
2023/06/21 11:02:34;;;;;;;8.70;6.53;;;28.50;78.60;;;;;;5031903;28;20049;-77
2023/06/21 11:05:26;;;;;;;10.02;7.75;;;28.40;78.20;;;;;;5035765;28;20075;-77
2023/06/21 11:07:57;;;;;;;8.40;6.93;;;28.30;78.80;;;;;;5035590;28;20045;-77
2023/06/21 11:10:37;;;;;;;10.70;8.00;;;28.20;82.10;;;;;;5035214;28;20057;-77
2023/06/21 11:13:03;;;;;;;9.05;7.18;;;28.10;83.20;;;;;;5034371;28;20080;-77
2023/06/21 11:15:31;;;;;;;9.70;7.38;;;28.10;82.40;;;;;;5035151;28;20077;-77
2023/06/21 11:18:05;;;;;;;9.18;7.00;;;28.10;81.70;;;;;;5018072;28;20053;-77
2023/06/21 11:20:43;;;;;;;8.73;7.10;;;28.00;81.70;;;;;;5017591;28;20046;-77
2023/06/21 11:23:09;;;;;;;8.77;6.90;;;28.00;83.40;;;;;;5018111;28;20087;-77
2023/06/21 11:25:38;;;;;;;8.70;6.88;;;28.00;84.80;;;;;;5017521;28;20041;-77
2023/06/21 11:28:19;;;;;;;10.00;7.43;;;28.00;84.70;;;;;;5035279;28;20041;-76
2023/06/21 11:31:08;;;;;;;7.30;5.38;;;28.00;83.10;;;;;;5033388;28;20093;-76
2023/06/21 11:33:53;;;;;;;8.52;5.07;;;28.00;82.80;;;;;;5017492;28;20132;-77
2023/06/21 11:36:26;;;;;;;7.28;5.07;;;27.90;81.00;;;;;;5033625;28;20088;-76
2023/06/21 11:39:04;;;;;;;7.85;4.95;;;28.00;82.00;;;;;;5034997;28;20057;-77
2023/06/21 11:41:57;;;;;;;7.13;4.90;;;27.90;78.50;;;;;;5033362;28;20116;-77
2023/06/21 11:44:28;;;;;;;7.70;5.78;;;27.90;78.60;;;;;;5035183;28;20089;-77
2023/06/21 11:47:18;;;;;;;8.52;5.18;;;27.80;80.10;;;;;;5034801;28;20038;-76
2023/06/21 11:49:57;;;;;;;6.85;4.60;;;27.70;81.90;;;;;;5024331;28;20058;-76
2023/06/21 11:52:30;;;;;;;8.93;4.80;;;27.70;82.60;;;;;;5033533;28;20132;-76
2023/06/21 11:54:59;;;;;;;8.30;4.32;;;27.80;81.90;;;;;;5033424;28;20045;-76
2023/06/21 11:57:25;;;;;;;10.32;5.38;;;27.80;81.00;;;;;;5033353;28;20041;-73
2023/06/21 11:59:51;;;;;;;6.82;4.63;;;27.90;77.90;;;;;;5032983;28;20389;-73
2023/06/21 12:02:21;;;;;;;8.23;5.15;;;27.90;78.20;;;;;;5032985;28;20100;-81
2023/06/21 12:04:48;;;;;;;8.10;4.97;;;27.90;77.50;;;;;;5034036;28;20053;-79
2023/06/21 12:07:15;;;;;;;8.00;5.05;;;27.80;77.30;;;;;;5033746;28;20057;-79
2023/06/21 12:09:49;;;;;;;8.65;5.22;;;27.80;78.70;;;;;;5034376;28;20052;-78
2023/06/21 12:12:14;;;;;;;8.68;6.05;;;27.90;80.10;;;;;;5033198;28;20041;-76
2023/06/21 12:14:40;;;;;;;9.80;6.70;;;27.80;80.50;;;;;;5033153;28;20045;-77
2023/06/21 12:17:06;;;;;;;9.73;6.75;;;27.80;81.60;;;;;;5032687;28;20045;-76
2023/06/21 12:19:32;;;;;;;8.35;5.15;;;27.70;79.30;;;;;;5033956;28;20045;-76
2023/06/21 12:22:03;;;;;;;9.57;6.78;;;27.60;81.80;;;;;;5033068;28;20080;-76
2023/06/21 12:24:30;;;;;;;8.55;6.13;;;27.50;82.90;;;;;;5033979;28;20132;-76
2023/06/21 12:26:57;;;;;;;10.82;6.65;;;27.60;84.10;;;;;;5033753;28;20041;-76
2023/06/21 12:29:25;;;;;;;10.65;7.32;;;27.50;84.00;;;;;;5032884;28;20132;-76
2023/06/21 12:31:53;;;;;;;9.27;6.93;;;27.40;85.40;;;;;;5032338;28;20049;-76
2023/06/21 12:34:18;;;;;;;8.98;6.75;;;27.30;86.40;;;;;;5032859;28;20057;-76
2023/06/21 12:36:45;;;;;;;8.90;7.35;;;27.20;87.10;;;;;;5033582;28;20045;-76
2023/06/21 12:39:15;;;;;;;10.00;7.38;;;27.20;89.50;;;;;;5033854;28;20152;-77
2023/06/21 12:41:42;;;;;;;10.23;6.65;;;27.30;90.40;;;;;;5033522;28;20037;-82